Dadville, New York
Current Conditions -  °F | °C
As of 8:24 PM on Tuesday 25 Nov 2014 (Local Time) from KGTB Reporting Station
Overcast Overcast  
Wind Chill: 26°   Ceiling: 3200
Heat Index: 36°   Visibility: 10mi
Dew Point: 32°   Wind: 16mph
Humidity: 87%   Direction: 260°W
Pressure: 30.07"   Gusts: 30mph
Location:  43.7565°N, 75.5938°W
Report Text: KGTB 260124Z AUTO 26014G26KT 230V300 10SM SCT026 OVC032 02/00 A3007 RMK AO2 RAE0056DZB0056E0124
Loading
Personal Weather Stations






























Interactive Weather Map New forecast layout! Learn more

10-Day Weather Forecast

Advertisements
Track Severe Weather on mobile